Time;durP1;ratioP1;P1;durP2;ratioP2;P2;SDS_P1;SDS_P2;PMS_P1;PMS_P2;Temp;Humidity;BMP_temperature;BMP_pressure;BME280_temperature;BME280_humidity;BME280_pressure;Samples;Min_cycle;Max_cycle;Signal;HPM_P1;HPM_P2
2023/07/11 00:01:16;;;;;;;8.30;7.35;;;;;;;-140.66;100.00;55571.53;5115592;28;20513;-75
2023/07/11 00:04:03;;;;;;;9.30;7.57;;;;;;;-140.66;100.00;55571.53;5115497;28;20439;-74
2023/07/11 00:06:52;;;;;;;10.43;7.30;;;;;;;-140.66;100.00;55571.53;5115152;28;20031;-74
2023/07/11 00:09:38;;;;;;;12.20;7.50;;;;;;;-140.66;100.00;55571.53;5115093;28;20464;-74
2023/07/11 00:12:28;;;;;;;9.48;7.10;;;;;;;-140.66;100.00;55571.53;5115200;28;20358;-75
2023/07/11 00:15:15;;;;;;;7.95;6.97;;;;;;;-140.66;100.00;55571.53;5113578;28;20440;-73
2023/07/11 00:18:01;;;;;;;11.32;7.50;;;;;;;-140.66;100.00;55571.53;5115881;28;20038;-75
2023/07/11 00:20:47;;;;;;;9.45;7.43;;;;;;;-140.66;100.00;55571.53;5113504;28;20052;-74
2023/07/11 00:23:33;;;;;;;12.30;7.72;;;;;;;-140.66;100.00;55571.53;5115574;28;20043;-75
2023/07/11 00:26:18;;;;;;;12.77;7.85;;;;;;;-140.66;100.00;55571.53;5114830;28;20116;-75
2023/07/11 00:29:20;;;;;;;17.13;8.02;;;;;;;-140.66;100.00;55571.53;5114161;28;20023;-74
2023/07/11 00:32:07;;;;;;;16.58;7.88;;;;;;;-140.66;100.00;55571.53;5114746;28;20160;-75
2023/07/11 00:34:53;;;;;;;10.65;7.45;;;;;;;-140.66;100.00;55571.53;5114476;28;20344;-75
2023/07/11 00:37:39;;;;;;;9.75;8.30;;;;;;;-140.66;100.00;55571.53;5114250;28;20011;-75
2023/07/11 00:40:24;;;;;;;11.10;8.50;;;;;;;-140.66;100.00;55571.53;5099443;28;20015;-74
2023/07/11 00:43:12;;;;;;;10.50;8.57;;;;;;;-140.66;100.00;55571.53;5113745;28;20023;-75
2023/07/11 00:46:04;;;;;;;11.63;8.20;;;;;;;-140.66;100.00;55571.53;5113086;28;20032;-75
2023/07/11 00:48:53;;;;;;;13.98;8.88;;;;;;;-140.66;100.00;55571.53;5099264;28;20063;-75
2023/07/11 00:51:54;;;;;;;15.50;8.30;;;;;;;-140.66;100.00;55571.53;5113957;28;20110;-75
2023/07/11 00:54:44;;;;;;;10.95;8.68;;;;;;;-140.66;100.00;55571.53;5114349;28;20077;-74
2023/07/11 00:57:33;;;;;;;19.17;9.00;;;;;;;-140.66;100.00;55571.53;5113900;28;20024;-75
2023/07/11 01:00:19;;;;;;;10.55;8.13;;;;;;;-140.66;100.00;55571.53;5114515;28;20333;-75
2023/07/11 01:03:05;;;;;;;12.05;8.18;;;;;;;-140.66;100.00;55571.53;5114961;28;20035;-74
2023/07/11 01:05:54;;;;;;;11.52;8.88;;;;;;;-140.66;100.00;55571.53;5114595;28;20039;-74
2023/07/11 01:08:41;;;;;;;12.38;9.10;;;;;;;-140.66;100.00;55571.53;5113486;28;20028;-74
2023/07/11 01:11:30;;;;;;;13.70;8.55;;;;;;;-140.66;100.00;55571.53;5114089;28;20371;-75
2023/07/11 01:14:16;;;;;;;11.57;8.40;;;;;;;-140.66;100.00;55571.53;5114831;28;20059;-75
2023/07/11 01:17:18;;;;;;;14.07;8.80;;;;;;;-140.66;100.00;55571.53;5114120;28;20023;-75
2023/07/11 01:20:07;;;;;;;15.00;9.38;;;;;;;-140.66;100.00;55571.53;5099160;28;20051;-75
2023/07/11 01:22:55;;;;;;;17.13;9.00;;;;;;;-140.66;100.00;55571.53;5114101;28;20424;-74
2023/07/11 01:25:41;;;;;;;11.05;8.55;;;;;;;-140.66;100.00;55571.53;5113725;28;20100;-75
2023/07/11 01:28:28;;;;;;;11.07;8.70;;;;;;;-140.66;100.00;55571.53;5098611;28;20381;-74
2023/07/11 01:31:13;;;;;;;14.95;9.40;;;;;;;-140.66;100.00;55571.53;5113986;28;20130;-75
2023/07/11 01:34:04;;;;;;;15.55;9.52;;;;;;;-140.66;100.00;55571.53;5113127;28;20031;-75
2023/07/11 01:36:50;;;;;;;12.73;9.35;;;;;;;-140.66;100.00;55571.53;5114527;28;20066;-74
2023/07/11 01:39:36;;;;;;;12.70;9.35;;;;;;;-140.66;100.00;55571.53;5114225;28;20063;-75
2023/07/11 01:42:23;;;;;;;14.75;9.23;;;;;;;-140.66;100.00;55571.53;5114153;28;20024;-74
2023/07/11 01:45:10;;;;;;;12.60;8.88;;;;;;;-140.66;100.00;55571.53;5099762;28;20027;-74
2023/07/11 01:47:56;;;;;;;13.02;9.15;;;;;;;-140.66;100.00;55571.53;5115164;28;20016;-74
2023/07/11 01:50:41;;;;;;;12.27;9.55;;;;;;;-140.66;100.00;55571.53;5114090;28;20038;-74
2023/07/11 01:53:27;;;;;;;10.65;9.27;;;;;;;-140.66;100.00;55571.53;5112752;28;20028;-75
2023/07/11 01:56:13;;;;;;;16.95;9.68;;;;;;;-140.66;100.00;55571.53;5098741;28;20080;-74
2023/07/11 01:58:59;;;;;;;14.05;10.45;;;;;;;-140.66;100.00;55571.53;5114152;28;20102;-75
2023/07/11 02:01:44;;;;;;;14.45;9.73;;;;;;;-140.66;100.00;55571.53;5114490;28;20028;-74
2023/07/11 02:04:32;;;;;;;11.65;9.23;;;;;;;-140.66;100.00;55571.53;5116128;28;20031;-74
2023/07/11 02:07:18;;;;;;;13.60;9.50;;;;;;;-140.66;100.00;55571.53;5117452;28;20081;-73
2023/07/11 02:10:05;;;;;;;14.13;9.50;;;;;;;-140.66;100.00;55571.53;5118380;28;20024;-74
2023/07/11 02:12:50;;;;;;;14.05;9.40;;;;;;;-140.66;100.00;55571.53;5117890;28;20028;-74
2023/07/11 02:15:36;;;;;;;17.02;8.98;;;;;;;-140.66;100.00;55571.53;5127707;28;20111;-75
2023/07/11 02:18:22;;;;;;;11.45;9.05;;;;;;;-140.66;100.00;55571.53;5117487;28;20019;-74
2023/07/11 02:21:07;;;;;;;13.38;9.43;;;;;;;-140.66;100.00;55571.53;5117669;28;20035;-74
2023/07/11 02:23:53;;;;;;;10.05;8.43;;;;;;;-140.66;100.00;55571.53;5118157;28;20021;-75
2023/07/11 02:26:39;;;;;;;14.68;9.88;;;;;;;-140.66;100.00;55571.53;5116871;28;20015;-75
2023/07/11 02:29:25;;;;;;;13.30;9.20;;;;;;;-140.66;100.00;55571.53;5117424;28;20066;-75
2023/07/11 02:32:11;;;;;;;15.18;9.23;;;;;;;-140.66;100.00;55571.53;5118059;28;20047;-75
2023/07/11 02:34:57;;;;;;;12.73;8.85;;;;;;;-140.66;100.00;55571.53;5137119;28;20028;-74
2023/07/11 02:37:43;;;;;;;12.65;9.80;;;;;;;-140.66;100.00;55571.53;5120051;27;20035;-74
2023/07/11 02:40:28;;;;;;;12.38;9.00;;;;;;;-140.66;100.00;55571.53;5117536;28;20035;-75
2023/07/11 02:43:15;;;;;;;12.55;9.50;;;;;;;-140.66;100.00;55571.53;5117194;28;20050;-75
2023/07/11 02:46:01;;;;;;;13.88;9.80;;;;;;;-140.66;100.00;55571.53;5103667;28;20100;-75
2023/07/11 02:48:46;;;;;;;14.38;9.70;;;;;;;-140.66;100.00;55571.53;5116642;28;20069;-75
2023/07/11 02:51:33;;;;;;;15.50;8.93;;;;;;;-140.66;100.00;55571.53;5116354;28;20028;-76
2023/07/11 02:54:19;;;;;;;14.70;10.27;;;;;;;-140.66;100.00;55571.53;5101423;28;20088;-74
2023/07/11 02:57:06;;;;;;;13.45;10.02;;;;;;;-140.66;100.00;55571.53;5101782;28;20028;-74
2023/07/11 02:59:52;;;;;;;12.25;9.93;;;;;;;-140.66;100.00;55571.53;5115368;28;20408;-75
2023/07/11 03:02:38;;;;;;;13.45;10.32;;;;;;;-140.66;100.00;55571.53;5101485;28;20402;-75
2023/07/11 03:05:24;;;;;;;12.90;9.35;;;;;;;-140.66;100.00;55571.53;5101378;28;20122;-76
2023/07/11 03:08:10;;;;;;;14.77;9.27;;;;;;;-140.66;100.00;55571.53;5117040;28;20020;-74
2023/07/11 03:10:57;;;;;;;16.65;8.88;;;;;;;-140.66;100.00;55571.53;5116071;28;20034;-75
2023/07/11 03:13:43;;;;;;;13.50;9.40;;;;;;;-140.66;100.00;55571.53;5116114;28;20423;-74
2023/07/11 03:16:29;;;;;;;11.25;9.23;;;;;;;-140.66;100.00;55571.53;5100454;28;20032;-75
2023/07/11 03:19:15;;;;;;;13.05;10.23;;;;;;;-140.66;100.00;55571.53;5115982;28;20051;-74
2023/07/11 03:22:00;;;;;;;16.92;9.13;;;;;;;-140.66;100.00;55571.53;5115979;28;20456;-75
2023/07/11 03:24:46;;;;;;;11.88;9.57;;;;;;;-140.66;100.00;55571.53;5115715;28;20039;-75
2023/07/11 03:27:32;;;;;;;12.50;9.48;;;;;;;-140.66;100.00;55571.53;5100844;28;20032;-74
2023/07/11 03:30:18;;;;;;;13.05;10.02;;;;;;;-140.66;100.00;55571.53;5115128;28;20031;-74
2023/07/11 03:33:05;;;;;;;14.25;9.85;;;;;;;-140.66;100.00;55571.53;5101228;28;20063;-75
2023/07/11 03:35:52;;;;;;;14.25;9.90;;;;;;;-140.66;100.00;55571.53;5116634;28;20028;-74
2023/07/11 03:38:39;;;;;;;12.15;10.05;;;;;;;-140.66;100.00;55571.53;5116548;28;20085;-74
2023/07/11 03:41:24;;;;;;;14.13;9.65;;;;;;;-140.66;100.00;55571.53;5114850;28;20027;-75
2023/07/11 03:44:10;;;;;;;13.80;9.90;;;;;;;-140.66;100.00;55571.53;5115310;28;20031;-75
2023/07/11 03:46:56;;;;;;;15.35;9.95;;;;;;;-140.66;100.00;55571.53;5114913;28;20452;-75
2023/07/11 03:49:41;;;;;;;11.50;10.00;;;;;;;-140.66;100.00;55571.53;5114753;28;20031;-75
2023/07/11 03:52:27;;;;;;;17.83;10.77;;;;;;;-140.66;100.00;55571.53;5114019;28;20077;-75
2023/07/11 03:55:13;;;;;;;13.10;10.40;;;;;;;-140.66;100.00;55571.53;5100327;28;20444;-74
2023/07/11 03:57:59;;;;;;;13.68;10.48;;;;;;;-140.66;100.00;55571.53;5113719;28;20024;-74
2023/07/11 04:00:48;;;;;;;14.05;10.07;;;;;;;-140.66;100.00;55571.53;5115808;28;20129;-74
2023/07/11 04:03:34;;;;;;;12.75;9.65;;;;;;;-140.66;100.00;55571.53;5113665;28;20063;-75
2023/07/11 04:06:20;;;;;;;13.10;9.65;;;;;;;-140.66;100.00;55571.53;5115070;28;20093;-74
2023/07/11 04:09:06;;;;;;;11.75;9.93;;;;;;;-140.66;100.00;55571.53;5114143;28;20110;-74
2023/07/11 04:11:51;;;;;;;18.92;11.60;;;;;;;-140.66;100.00;55571.53;5115563;28;20428;-74
2023/07/11 04:14:37;;;;;;;17.20;11.18;;;;;;;-140.66;100.00;55571.53;5115111;28;20049;-75
2023/07/11 04:17:23;;;;;;;14.57;10.93;;;;;;;-140.66;100.00;55571.53;5115191;28;20051;-75
2023/07/11 04:20:10;;;;;;;14.35;10.60;;;;;;;-140.66;100.00;55571.53;5114753;28;20051;-76
2023/07/11 04:22:55;;;;;;;14.88;10.75;;;;;;;-140.66;100.00;55571.53;5114689;28;20036;-75
2023/07/11 04:25:41;;;;;;;15.07;10.52;;;;;;;-140.66;100.00;55571.53;5114702;28;20458;-76
2023/07/11 04:28:27;;;;;;;16.42;10.88;;;;;;;-140.66;100.00;55571.53;5113070;28;20028;-74
2023/07/11 04:31:13;;;;;;;18.52;10.95;;;;;;;-140.66;100.00;55571.53;5114501;28;20114;-75
2023/07/11 04:33:58;;;;;;;16.38;11.07;;;;;;;-140.66;100.00;55571.53;5114761;28;20034;-74
2023/07/11 04:36:44;;;;;;;16.10;10.88;;;;;;;-140.66;100.00;55571.53;5114280;28;20447;-74
2023/07/11 04:39:30;;;;;;;13.18;10.57;;;;;;;-140.66;100.00;55571.53;5114636;28;20032;-74
2023/07/11 04:42:16;;;;;;;13.52;10.57;;;;;;;-140.66;100.00;55571.53;5100409;28;20023;-74
2023/07/11 04:45:02;;;;;;;13.00;9.70;;;;;;;-140.66;100.00;55571.53;5119380;28;20027;-73
2023/07/11 04:47:47;;;;;;;18.98;10.60;;;;;;;-140.66;100.00;55571.53;5133584;28;20344;-74
2023/07/11 04:50:33;;;;;;;14.40;10.65;;;;;;;-140.66;100.00;55571.53;5115539;28;20511;-75
2023/07/11 04:53:19;;;;;;;13.93;10.32;;;;;;;-140.66;100.00;55571.53;5100189;28;20110;-75
2023/07/11 04:56:07;;;;;;;16.25;10.18;;;;;;;-140.66;100.00;55571.53;5113742;28;20030;-75
2023/07/11 04:58:53;;;;;;;11.07;9.75;;;;;;;-140.66;100.00;55571.53;5099529;28;20028;-74
2023/07/11 05:01:39;;;;;;;11.85;10.25;;;;;;;-140.66;100.00;55571.53;5114275;28;20031;-74
2023/07/11 05:04:24;;;;;;;16.55;10.45;;;;;;;-140.66;100.00;55571.53;5110301;28;20027;-74
2023/07/11 05:07:10;;;;;;;15.95;10.65;;;;;;;-140.66;100.00;55571.53;5123104;28;20108;-74
2023/07/11 05:09:56;;;;;;;13.30;10.23;;;;;;;-140.66;100.00;55571.53;5099854;28;20089;-75
2023/07/11 05:12:41;;;;;;;17.50;11.23;;;;;;;-140.66;100.00;55571.53;5114497;28;20035;-75
2023/07/11 05:15:27;;;;;;;12.00;10.55;;;;;;;-140.66;100.00;55571.53;5113565;28;20027;-75
2023/07/11 05:18:13;;;;;;;14.40;10.20;;;;;;;-140.66;100.00;55571.53;5114288;28;20440;-75
2023/07/11 05:20:59;;;;;;;14.60;11.07;;;;;;;-140.66;100.00;55571.53;5093689;28;20048;-75
2023/07/11 05:23:45;;;;;;;14.57;10.43;;;;;;;-140.66;100.00;55571.53;5094967;28;20080;-74
2023/07/11 05:26:31;;;;;;;11.82;9.90;;;;;;;-140.66;100.00;55571.53;5093621;28;20085;-74
2023/07/11 05:29:17;;;;;;;14.57;10.35;;;;;;;-140.66;100.00;55571.53;5093269;28;20024;-75
2023/07/11 05:32:03;;;;;;;15.32;10.20;;;;;;;-140.66;100.00;55571.53;5095322;28;20060;-74
2023/07/11 05:34:49;;;;;;;15.75;9.55;;;;;;;-140.66;100.00;55571.53;5094698;28;20020;-74
2023/07/11 05:37:34;;;;;;;17.35;10.35;;;;;;;-140.66;100.00;55571.53;5094209;28;20035;-75
2023/07/11 05:40:20;;;;;;;18.25;10.43;;;;;;;-140.66;100.00;55571.53;5097451;28;20055;-75
2023/07/11 05:43:06;;;;;;;16.35;10.43;;;;;;;-140.66;100.00;55571.53;5097567;28;20027;-75
2023/07/11 05:45:51;;;;;;;14.05;10.20;;;;;;;-140.66;100.00;55571.53;5097372;28;20059;-74
2023/07/11 05:48:37;;;;;;;14.60;9.85;;;;;;;-140.66;100.00;55571.53;5097483;28;20043;-74
2023/07/11 05:51:24;;;;;;;13.98;10.38;;;;;;;-140.66;100.00;55571.53;5096954;28;20471;-74
2023/07/11 05:54:10;;;;;;;12.10;9.75;;;;;;;-140.66;100.00;55571.53;5097527;28;20048;-75
2023/07/11 05:56:55;;;;;;;14.75;10.88;;;;;;;-140.66;100.00;55571.53;5097102;28;20028;-75
2023/07/11 05:59:41;;;;;;;14.48;10.98;;;;;;;-140.66;100.00;55571.53;5097192;28;20028;-74
2023/07/11 06:02:27;;;;;;;15.00;10.60;;;;;;;-140.66;100.00;55571.53;5083565;28;20089;-75
2023/07/11 06:05:12;;;;;;;16.65;9.85;;;;;;;-140.66;100.00;55571.53;5097963;28;20067;-74
2023/07/11 06:07:58;;;;;;;16.15;10.07;;;;;;;-140.66;100.00;55571.53;5096971;28;20019;-72
2023/07/11 06:10:44;;;;;;;17.38;10.32;;;;;;;-140.66;100.00;55571.53;5099824;28;20024;-75
2023/07/11 06:13:33;;;;;;;15.48;10.52;;;;;;;-140.66;100.00;55571.53;5083730;28;20062;-75
2023/07/11 06:16:21;;;;;;;16.95;10.73;;;;;;;-140.66;100.00;55571.53;5096617;28;20020;-75
2023/07/11 06:19:06;;;;;;;18.70;10.85;;;;;;;-140.66;100.00;55571.53;5102401;28;20471;-74
2023/07/11 06:21:52;;;;;;;14.65;11.40;;;;;;;-140.66;100.00;55571.53;5116877;28;20050;-74
2023/07/11 06:24:38;;;;;;;13.82;10.25;;;;;;;-140.66;100.00;55571.53;5116907;28;20034;-75
2023/07/11 06:27:24;;;;;;;16.88;10.90;;;;;;;-140.66;100.00;55571.53;5102442;28;20020;-73
2023/07/11 06:30:10;;;;;;;15.57;10.77;;;;;;;-140.66;100.00;55571.53;5102751;28;20055;-75
2023/07/11 06:32:58;;;;;;;13.55;10.57;;;;;;;-140.66;100.00;55571.53;5101021;28;20085;-74
2023/07/11 06:35:51;;;;;;;13.57;10.13;;;;;;;-140.66;100.00;55571.53;5116045;28;20074;-75
2023/07/11 06:38:36;;;;;;;12.93;10.70;;;;;;;-140.66;100.00;55571.53;5116934;28;20400;-74
2023/07/11 06:41:22;;;;;;;15.25;10.65;;;;;;;-140.66;100.00;55571.53;5116778;28;20341;-74
2023/07/11 06:44:08;;;;;;;15.75;10.85;;;;;;;-140.66;100.00;55571.53;5116974;28;20023;-75
2023/07/11 06:46:54;;;;;;;12.50;10.48;;;;;;;-140.66;100.00;55571.53;5116939;28;20027;-74
2023/07/11 06:49:39;;;;;;;17.88;10.80;;;;;;;-140.66;100.00;55571.53;5116303;28;20024;-75
2023/07/11 06:52:25;;;;;;;12.45;9.70;;;;;;;-140.66;100.00;55571.53;5116433;28;20038;-75
2023/07/11 06:55:12;;;;;;;14.95;10.15;;;;;;;-140.66;100.00;55571.53;5116807;28;20023;-74
2023/07/11 06:57:58;;;;;;;12.15;10.02;;;;;;;-140.66;100.00;55571.53;5116731;28;20352;-75
2023/07/11 07:00:44;;;;;;;11.10;9.88;;;;;;;-140.66;100.00;55571.53;5115071;28;20053;-75
2023/07/11 07:03:30;;;;;;;16.60;9.75;;;;;;;-140.66;100.00;55571.53;5116153;28;20094;-75
2023/07/11 07:06:17;;;;;;;13.00;10.02;;;;;;;-140.66;100.00;55571.53;5115738;28;20031;-74
2023/07/11 07:09:03;;;;;;;14.13;10.02;;;;;;;-140.66;100.00;55571.53;5116819;28;20027;-75
2023/07/11 07:11:49;;;;;;;11.77;10.02;;;;;;;-140.66;100.00;55571.53;5116388;28;20220;-75
2023/07/11 07:14:34;;;;;;;15.30;10.43;;;;;;;-140.66;100.00;55571.53;5116508;28;20514;-73
2023/07/11 07:17:20;;;;;;;18.40;10.75;;;;;;;-140.66;100.00;55571.53;5124565;27;20043;-76
2023/07/11 07:20:06;;;;;;;15.05;10.35;;;;;;;-140.66;100.00;55571.53;5129093;28;20040;-75
2023/07/11 07:22:53;;;;;;;16.90;10.57;;;;;;;-140.66;100.00;55571.53;5116180;28;20031;-75
2023/07/11 07:25:39;;;;;;;17.00;10.70;;;;;;;-140.66;100.00;55571.53;5114926;28;20439;-76
2023/07/11 07:28:27;;;;;;;11.80;9.52;;;;;;;-140.66;100.00;55571.53;5100258;28;20027;-74
2023/07/11 07:31:13;;;;;;;15.60;10.07;;;;;;;-140.66;100.00;55571.53;5115341;28;20352;-75
2023/07/11 07:33:59;;;;;;;14.52;10.75;;;;;;;-140.66;100.00;55571.53;5117853;28;20451;-75
2023/07/11 07:36:45;;;;;;;15.85;10.35;;;;;;;-140.66;100.00;55571.53;5131378;28;20036;-74
2023/07/11 07:39:31;;;;;;;16.45;9.40;;;;;;;-140.66;100.00;55571.53;5122819;28;20031;-75
2023/07/11 07:42:16;;;;;;;11.63;9.70;;;;;;;-140.66;100.00;55571.53;5101250;28;20032;-75
2023/07/11 07:45:02;;;;;;;12.80;9.77;;;;;;;-140.66;100.00;55571.53;5102280;28;20024;-75
2023/07/11 07:47:48;;;;;;;13.57;9.80;;;;;;;-140.66;100.00;55571.53;5114766;28;20440;-75
2023/07/11 07:50:33;;;;;;;12.57;10.05;;;;;;;-140.66;100.00;55571.53;5115720;28;20513;-75
2023/07/11 07:53:19;;;;;;;14.15;9.70;;;;;;;-140.66;100.00;55571.53;5113859;28;20386;-74
2023/07/11 07:56:07;;;;;;;13.50;9.98;;;;;;;-140.66;100.00;55571.53;5114779;28;20027;-75
2023/07/11 07:58:53;;;;;;;14.27;10.80;;;;;;;-140.66;100.00;55571.53;5114861;28;20022;-75
2023/07/11 08:01:39;;;;;;;13.68;11.00;;;;;;;-140.66;100.00;55571.53;5114279;28;20040;-75
2023/07/11 08:04:24;;;;;;;13.18;9.60;;;;;;;-140.66;100.00;55571.53;5115004;28;20031;-75
2023/07/11 08:07:10;;;;;;;17.85;9.88;;;;;;;-140.66;100.00;55571.53;5115400;28;20027;-75
2023/07/11 08:09:58;;;;;;;16.35;9.75;;;;;;;-140.66;100.00;55571.53;5115251;28;20020;-75
2023/07/11 08:12:44;;;;;;;14.98;10.18;;;;;;;-140.66;100.00;55571.53;5114833;28;20028;-74
2023/07/11 08:15:29;;;;;;;16.02;9.70;;;;;;;-140.66;100.00;55571.53;5115194;28;20485;-75
2023/07/11 08:18:15;;;;;;;11.02;9.70;;;;;;;-140.66;100.00;55571.53;5114476;28;20506;-75
2023/07/11 08:21:01;;;;;;;13.25;9.00;;;;;;;-140.66;100.00;55571.53;5114002;28;20071;-76
2023/07/11 08:23:47;;;;;;;11.43;9.95;;;;;;;-140.66;100.00;55571.53;5114904;28;20019;-73
2023/07/11 08:26:32;;;;;;;23.00;9.80;;;;;;;-140.66;100.00;55571.53;5100099;28;20030;-75
2023/07/11 08:29:18;;;;;;;15.18;9.18;;;;;;;-140.66;100.00;55571.53;5114009;28;20024;-75
2023/07/11 08:32:04;;;;;;;16.67;9.73;;;;;;;-140.66;100.00;55571.53;5113794;28;20042;-75
2023/07/11 08:34:50;;;;;;;14.05;9.32;;;;;;;-140.66;100.00;55571.53;5113509;28;20023;-75
2023/07/11 08:37:36;;;;;;;14.18;9.55;;;;;;;-140.66;100.00;55571.53;5114402;28;20028;-74
2023/07/11 08:40:29;;;;;;;12.82;9.38;;;;;;;-140.66;100.00;55571.53;5114551;28;20478;-74
2023/07/11 08:43:19;;;;;;;14.02;8.80;;;;;;;-140.66;100.00;55571.53;5114073;28;20114;-75
2023/07/11 08:46:10;;;;;;;16.95;9.50;;;;;;;-140.66;100.00;55571.53;5114185;28;20031;-75
2023/07/11 08:49:00;;;;;;;10.20;8.85;;;;;;;-140.66;100.00;55571.53;5114500;28;20035;-75
2023/07/11 08:51:51;;;;;;;12.38;9.00;;;;;;;-140.66;100.00;55571.53;5099484;28;20397;-74
2023/07/11 08:55:03;;;;;;;14.25;9.27;;;;;;;-140.66;100.00;55571.53;5098952;28;20063;-74
2023/07/11 08:58:05;;;;;;;14.27;9.05;;;;;;;-140.66;100.00;55571.53;5089895;28;20036;-75
2023/07/11 09:00:51;;;;;;;11.93;8.80;;;;;;;-140.66;100.00;55571.53;5112421;28;20110;-75
2023/07/11 09:03:47;;;;;;;13.48;9.82;;;;;;;-140.66;100.00;55571.53;5115203;28;20137;-74
2023/07/11 09:06:46;;;;;;;15.27;9.20;;;;;;;-140.66;100.00;55571.53;5113526;28;20092;-75
2023/07/11 09:09:32;;;;;;;15.63;8.80;;;;;;;-140.66;100.00;55571.53;5115356;28;20107;-74
2023/07/11 09:12:33;;;;;;;11.55;8.95;;;;;;;-140.66;100.00;55571.53;5114831;28;20042;-75
2023/07/11 09:15:35;;;;;;;12.85;8.50;;;;;;;-140.66;100.00;55571.53;5118594;28;20333;-75
2023/07/11 09:18:35;;;;;;;13.05;8.55;;;;;;;-140.66;100.00;55571.53;5106148;28;20398;-75
2023/07/11 09:21:27;;;;;;;11.50;8.73;;;;;;;-140.66;100.00;55571.53;5103779;28;20042;-74
2023/07/11 09:24:45;;;;;;;10.88;8.38;;;;;;;-140.66;100.00;55571.53;5118790;28;20028;-75
2023/07/11 09:27:36;;;;;;;11.73;8.75;;;;;;;-140.66;100.00;55571.53;5118300;28;20126;-73
2023/07/11 09:30:32;;;;;;;11.80;8.85;;;;;;;-140.66;100.00;55571.53;5118690;28;20145;-74
2023/07/11 09:33:22;;;;;;;10.23;8.70;;;;;;;-140.66;100.00;55571.53;5118306;28;20085;-75
2023/07/11 09:36:17;;;;;;;10.65;8.75;;;;;;;-140.66;100.00;55571.53;5103628;28;20073;-74
2023/07/11 09:39:32;;;;;;;14.55;8.07;;;;;;;-140.66;100.00;55571.53;5119014;28;20093;-75
2023/07/11 09:42:37;;;;;;;12.38;8.52;;;;;;;-140.66;100.00;55571.53;5117973;28;20364;-75
2023/07/11 09:45:35;;;;;;;11.73;8.75;;;;;;;-140.66;100.00;55571.53;5117776;28;20027;-75
2023/07/11 09:48:28;;;;;;;10.10;8.30;;;;;;;-140.66;100.00;55571.53;5117679;28;20032;-75
2023/07/11 09:51:36;;;;;;;17.73;8.77;;;;;;;-140.66;100.00;55571.53;5117735;28;20535;-74
2023/07/11 09:54:26;;;;;;;11.45;8.30;;;;;;;-140.66;100.00;55571.53;5118022;28;20023;-75
2023/07/11 09:57:12;;;;;;;17.65;8.43;;;;;;;-140.66;100.00;55571.53;5117771;28;20332;-75
2023/07/11 10:00:01;;;;;;;13.98;8.70;;;;;;;-140.66;100.00;55571.53;5103362;28;20360;-74
2023/07/11 10:02:47;;;;;;;12.50;8.27;;;;;;;-140.66;100.00;55571.53;5117605;28;20066;-73
2023/07/11 10:05:33;;;;;;;14.70;8.43;;;;;;;-140.66;100.00;55571.53;5116367;28;20027;-74
2023/07/11 10:08:43;;;;;;;17.38;8.55;;;;;;;-140.66;100.00;55571.53;5103305;28;20070;-75
2023/07/11 10:11:29;;;;;;;16.60;8.73;;;;;;;-140.66;100.00;55571.53;5118345;28;20433;-74
2023/07/11 10:14:17;;;;;;;9.57;8.00;;;;;;;-140.66;100.00;55571.53;5117579;28;20106;-76
2023/07/11 10:17:16;;;;;;;17.00;8.00;;;;;;;-140.66;100.00;55571.53;5117241;28;20023;-74
2023/07/11 10:20:06;;;;;;;14.23;7.80;;;;;;;-140.66;100.00;55571.53;5116502;28;20105;-74
2023/07/11 10:23:00;;;;;;;12.48;7.75;;;;;;;-140.66;100.00;55571.53;5102034;28;20039;-74
2023/07/11 10:25:46;;;;;;;17.83;7.93;;;;;;;-140.66;100.00;55571.53;5120062;28;20058;-73
2023/07/11 10:28:38;;;;;;;19.95;7.90;;;;;;;-140.66;100.00;55571.53;5116921;28;20032;-74
2023/07/11 10:31:32;;;;;;;9.23;7.57;;;;;;;-140.66;100.00;55571.53;5116143;28;20073;-74
2023/07/11 10:34:25;;;;;;;18.75;7.78;;;;;;;-140.66;100.00;55571.53;5118405;28;20491;-74
2023/07/11 10:37:20;;;;;;;10.90;7.60;;;;;;;-140.66;100.00;55571.53;5118572;28;20031;-75
2023/07/11 10:40:13;;;;;;;18.95;7.88;;;;;;;-140.66;100.00;55571.53;5119404;28;20034;-73
2023/07/11 10:43:27;;;;;;;15.80;7.97;;;;;;;-140.66;100.00;55571.53;5102744;28;20510;-73
2023/07/11 10:46:31;;;;;;;11.70;7.93;;;;;;;-140.66;100.00;55571.53;5117257;28;20042;-75
2023/07/11 10:49:37;;;;;;;11.98;7.85;;;;;;;-140.66;100.00;55571.53;5118274;28;20369;-74
2023/07/11 10:52:27;;;;;;;15.93;8.00;;;;;;;-140.66;100.00;55571.53;5117348;28;20032;-75
2023/07/11 10:55:30;;;;;;;11.45;7.68;;;;;;;-140.66;100.00;55571.53;5118344;28;20028;-75
2023/07/11 10:58:20;;;;;;;10.00;7.15;;;;;;;-140.66;100.00;55571.53;5103559;28;20020;-74
2023/07/11 11:01:57;;;;;;;15.13;7.72;;;;;;;-140.66;100.00;55571.53;5118371;28;20039;-75
2023/07/11 11:04:50;;;;;;;18.95;8.13;;;;;;;-140.66;100.00;55571.53;5018950;28;20038;-74
2023/07/11 11:07:44;;;;;;;11.18;7.57;;;;;;;-140.66;100.00;55571.53;5117824;28;20452;-75
2023/07/11 11:10:38;;;;;;;12.93;7.28;;;;;;;-140.66;100.00;55571.53;5117991;28;20035;-74
2023/07/11 11:13:35;;;;;;;14.40;7.40;;;;;;;-140.66;100.00;55571.53;5103942;28;20019;-74
2023/07/11 11:16:31;;;;;;;14.65;7.32;;;;;;;-140.66;100.00;55571.53;5127554;28;20024;-74
2023/07/11 11:19:45;;;;;;;10.02;7.13;;;;;;;-140.66;100.00;55571.53;5126402;28;20048;-74
2023/07/11 11:23:01;;;;;;;11.02;7.30;;;;;;;-140.66;100.00;55571.53;5102056;28;20443;-75
2023/07/11 11:26:14;;;;;;;13.88;7.00;;;;;;;-140.66;100.00;55571.53;5131879;28;20019;-73
2023/07/11 11:29:13;;;;;;;16.67;7.55;;;;;;;-140.66;100.00;55571.53;5128034;28;20023;-76
2023/07/11 11:32:26;;;;;;;13.32;7.55;;;;;;;-140.66;100.00;55571.53;5129446;28;20127;-75
2023/07/11 11:35:52;;;;;;;13.13;8.32;;;;;;;-140.66;100.00;55571.53;5118062;28;20092;-74
2023/07/11 11:39:08;;;;;;;10.95;6.97;;;;;;;-140.66;100.00;55571.53;5016937;28;20066;-74
2023/07/11 11:41:58;;;;;;;13.13;7.47;;;;;;;-140.66;100.00;55571.53;5123717;28;20028;-75
2023/07/11 11:44:50;;;;;;;9.88;7.07;;;;;;;-140.66;100.00;55571.53;5115648;28;20031;-75
2023/07/11 11:47:37;;;;;;;10.95;7.68;;;;;;;-140.66;100.00;55571.53;5114075;28;20107;-74
2023/07/11 11:50:25;;;;;;;11.82;7.75;;;;;;;-140.66;100.00;55571.53;5115504;28;20028;-75
2023/07/11 11:53:19;;;;;;;13.15;8.00;;;;;;;-140.66;100.00;55571.53;5115483;28;20027;-74
2023/07/11 11:56:07;;;;;;;12.68;7.28;;;;;;;-140.66;100.00;55571.53;5115327;28;20023;-74
2023/07/11 11:59:01;;;;;;;17.15;7.70;;;;;;;-140.66;100.00;55571.53;5116143;28;20107;-74
2023/07/11 12:01:53;;;;;;;17.30;7.93;;;;;;;-140.66;100.00;55571.53;5115313;28;20435;-74
2023/07/11 12:04:57;;;;;;;12.05;7.68;;;;;;;-140.66;100.00;55571.53;5115118;28;20023;-74
2023/07/11 12:07:44;;;;;;;13.15;9.00;;;;;;;-140.66;100.00;55571.53;5099936;28;20023;-74
2023/07/11 12:10:34;;;;;;;13.40;7.57;;;;;;;-140.66;100.00;55571.53;5115361;28;20028;-73
2023/07/11 12:13:31;;;;;;;14.52;8.63;;;;;;;-140.66;100.00;55571.53;5114902;28;20076;-75
2023/07/11 12:16:17;;;;;;;15.63;9.02;;;;;;;-140.66;100.00;55571.53;5115676;28;20115;-75
2023/07/11 12:19:03;;;;;;;18.88;9.15;;;;;;;-140.66;100.00;55571.53;5115776;28;20058;-74
2023/07/11 12:21:57;;;;;;;14.85;7.90;;;;;;;-140.66;100.00;55571.53;5115055;28;20065;-74
2023/07/11 12:24:44;;;;;;;14.27;7.53;;;;;;;-140.66;100.00;55571.53;5115461;28;20051;-75
2023/07/11 12:27:30;;;;;;;10.35;7.75;;;;;;;-140.66;100.00;55571.53;5114905;28;20100;-75
2023/07/11 12:30:38;;;;;;;17.02;7.72;;;;;;;-140.66;100.00;55571.53;5114725;28;20039;-74
2023/07/11 12:33:31;;;;;;;10.82;7.30;;;;;;;-140.66;100.00;55571.53;5100585;28;20074;-74
2023/07/11 12:36:22;;;;;;;14.68;7.35;;;;;;;-140.66;100.00;55571.53;5114134;28;20371;-75
2023/07/11 12:39:28;;;;;;;11.93;7.82;;;;;;;-140.66;100.00;55571.53;5100073;28;20023;-73